createdAt,value
2023-02-18T00:00:48.263Z,21.25
2023-02-18T00:03:50.950Z,20.98
2023-02-18T00:06:52.837Z,20.33
2023-02-18T00:09:54.888Z,21.88
2023-02-18T00:12:56.680Z,21.33
2023-02-18T00:16:10.694Z,20.83
2023-02-18T00:19:15.981Z,21.83
2023-02-18T00:22:17.918Z,21.50
2023-02-18T00:25:19.861Z,20.80
2023-02-18T00:28:21.747Z,22.23
2023-02-18T00:31:26.778Z,22.13
2023-02-18T00:34:28.892Z,20.35
2023-02-18T00:37:30.878Z,18.50
2023-02-18T00:40:32.930Z,18.50
2023-02-18T00:43:34.779Z,18.90
2023-02-18T00:46:38.115Z,17.90
2023-02-18T00:49:41.544Z,18.42
2023-02-18T00:52:43.477Z,17.43
2023-02-18T00:55:49.851Z,19.17
2023-02-18T00:58:53.046Z,15.98
2023-02-18T01:01:55.035Z,24.75
2023-02-18T01:04:57.136Z,22.13
2023-02-18T01:07:59.188Z,16.60
2023-02-18T01:11:01.327Z,19.90
2023-02-18T01:14:03.533Z,17.88
2023-02-18T01:17:05.486Z,22.60
2023-02-18T01:20:08.665Z,17.33
2023-02-18T01:23:12.092Z,19.40
2023-02-18T01:26:13.948Z,18.58
2023-02-18T01:29:15.870Z,21.33
2023-02-18T01:32:18.036Z,17.15
2023-02-18T01:35:20.582Z,18.13
2023-02-18T01:38:22.590Z,16.20
2023-02-18T01:41:24.807Z,16.70
2023-02-18T01:44:28.735Z,15.50
2023-02-18T01:47:30.678Z,15.93
2023-02-18T01:50:36.202Z,18.65
2023-02-18T01:53:56.296Z,17.60
2023-02-18T01:57:04.885Z,18.33
2023-02-18T02:00:14.250Z,16.00
2023-02-18T02:03:21.710Z,18.38
2023-02-18T02:06:25.666Z,17.70
2023-02-18T02:09:37.219Z,18.10
2023-02-18T02:13:17.962Z,18.17
2023-02-18T02:16:34.411Z,17.60
2023-02-18T02:19:50.947Z,19.88
2023-02-18T02:23:32.691Z,18.52
2023-02-18T02:26:59.542Z,15.97
2023-02-18T02:30:10.544Z,19.95
2023-02-18T02:33:32.238Z,27.35
2023-02-18T02:36:48.045Z,26.63
2023-02-18T02:40:25.610Z,25.88
2023-02-18T02:43:51.302Z,25.73
2023-02-18T02:47:00.685Z,24.83
2023-02-18T02:50:37.295Z,23.27
2023-02-18T02:53:41.902Z,24.42
2023-02-18T02:56:43.908Z,22.48
2023-02-18T02:59:51.341Z,22.77
2023-02-18T03:03:22.668Z,22.13
2023-02-18T03:06:27.918Z,21.35
2023-02-18T03:09:45.266Z,20.73
2023-02-18T03:12:47.084Z,20.27
2023-02-18T03:15:55.129Z,18.70
2023-02-18T03:19:35.214Z,17.90
2023-02-18T03:22:42.374Z,15.18
2023-02-18T03:25:44.354Z,15.93
2023-02-18T03:28:51.016Z,14.57
2023-02-18T03:32:57.598Z,13.67
2023-02-18T03:42:38.504Z,12.00
2023-02-18T03:58:49.573Z,12.40
2023-02-18T04:08:29.838Z,9.52
2023-02-18T04:16:41.139Z,8.68
2023-02-18T04:19:43.135Z,9.67
2023-02-18T04:22:45.233Z,7.50
2023-02-18T04:25:47.125Z,8.73
2023-02-18T04:28:48.971Z,21.67
2023-02-18T04:31:50.920Z,17.35
2023-02-18T04:34:53.086Z,31.20
2023-02-18T04:37:54.955Z,18.58
2023-02-18T04:40:56.782Z,23.95
2023-02-18T04:43:59.692Z,27.80
2023-02-18T04:47:02.431Z,31.85
2023-02-18T04:50:04.791Z,17.37
2023-02-18T04:53:07.633Z,13.57
2023-02-18T04:56:09.913Z,9.25
2023-02-18T04:59:12.222Z,12.35
2023-02-18T05:02:14.058Z,7.88
2023-02-18T05:05:16.456Z,5.10
2023-02-18T05:08:19.122Z,3.92
2023-02-18T05:11:21.146Z,3.65
2023-02-18T05:14:23.022Z,5.18
2023-02-18T05:17:24.898Z,3.53
2023-02-18T05:20:27.281Z,2.40
2023-02-18T05:23:29.203Z,3.28
2023-02-18T05:26:31.073Z,2.80
2023-02-18T05:29:33.067Z,3.33
2023-02-18T05:32:35.113Z,5.65
2023-02-18T05:35:37.093Z,2.67
2023-02-18T05:38:39.162Z,2.78
2023-02-18T05:41:41.102Z,2.53
2023-02-18T05:44:43.011Z,2.85
2023-02-18T05:47:44.890Z,4.32
2023-02-18T05:50:46.838Z,2.77
2023-02-18T05:53:48.758Z,3.03
2023-02-18T05:56:51.643Z,2.83
2023-02-18T05:59:53.626Z,2.45
2023-02-18T06:02:55.502Z,3.35
2023-02-18T06:05:57.635Z,3.30
2023-02-18T06:09:00.302Z,4.05
2023-02-18T06:12:02.263Z,3.28
2023-02-18T06:15:05.025Z,3.33
2023-02-18T06:18:07.218Z,2.65
2023-02-18T06:21:09.169Z,4.23
2023-02-18T06:24:11.167Z,3.28
2023-02-18T06:27:13.071Z,2.05
2023-02-18T06:30:17.230Z,3.20
2023-02-18T06:33:19.226Z,4.82
2023-02-18T06:36:21.112Z,3.80
2023-02-18T06:39:23.217Z,5.10
2023-02-18T06:42:25.292Z,2.53
2023-02-18T06:45:27.185Z,3.28
2023-02-18T06:48:29.402Z,4.07
2023-02-18T06:51:31.217Z,3.30
2023-02-18T06:54:34.377Z,3.95
2023-02-18T06:57:36.763Z,3.67
2023-02-18T07:00:38.909Z,3.05
2023-02-18T07:03:41.104Z,3.55
2023-02-18T07:06:43.768Z,4.13
2023-02-18T07:09:45.590Z,3.10
2023-02-18T07:12:47.806Z,3.30
2023-02-18T07:15:49.754Z,2.60
2023-02-18T07:18:51.693Z,3.42
2023-02-18T07:21:57.576Z,1.97
2023-02-18T07:24:59.791Z,2.17
2023-02-18T07:28:01.725Z,4.63
2023-02-18T07:31:04.629Z,2.78
2023-02-18T07:34:06.670Z,4.43
2023-02-18T07:37:12.525Z,10.37
2023-02-18T07:40:16.671Z,4.93
2023-02-18T07:43:20.111Z,3.83
2023-02-18T07:46:22.299Z,2.63
2023-02-18T07:49:24.321Z,3.20
2023-02-18T07:52:26.230Z,2.53
2023-02-18T07:55:48.002Z,2.63
2023-02-18T07:58:49.858Z,1.80
2023-02-18T08:01:51.845Z,2.80
2023-02-18T08:04:53.810Z,4.57
2023-02-18T08:07:55.974Z,2.73
2023-02-18T08:11:13.392Z,3.30
2023-02-18T08:14:20.202Z,3.03
2023-02-18T08:17:22.096Z,3.47
2023-02-18T08:20:24.220Z,2.58
2023-02-18T08:23:26.482Z,6.30
2023-02-18T08:26:28.808Z,3.03
2023-02-18T08:29:30.932Z,2.60
2023-02-18T08:32:33.238Z,4.15
2023-02-18T08:35:35.197Z,3.95
2023-02-18T08:38:37.499Z,2.40
2023-02-18T08:41:39.460Z,3.83
2023-02-18T08:44:41.515Z,3.72
2023-02-18T08:48:16.115Z,3.78
2023-02-18T08:51:17.942Z,5.38
2023-02-18T08:54:20.271Z,8.40
2023-02-18T08:57:22.067Z,10.63
2023-02-18T09:00:24.370Z,6.97
2023-02-18T09:03:27.031Z,15.00
2023-02-18T09:06:28.947Z,9.25
2023-02-18T09:09:30.889Z,14.67
2023-02-18T09:12:33.258Z,6.03
2023-02-18T09:16:20.713Z,2.78
2023-02-18T09:20:22.518Z,2.08
2023-02-18T09:24:04.520Z,3.92
2023-02-18T09:27:06.702Z,1.47
2023-02-18T09:30:09.125Z,2.90
2023-02-18T09:33:11.261Z,4.35
2023-02-18T09:36:14.318Z,4.10
2023-02-18T09:39:18.117Z,2.33
2023-02-18T09:42:28.465Z,1.53
2023-02-18T09:45:30.523Z,1.85
2023-02-18T09:48:36.189Z,3.78
2023-02-18T09:51:38.343Z,2.00
2023-02-18T09:54:41.181Z,1.85
2023-02-18T09:57:54.819Z,3.33
2023-02-18T10:01:20.016Z,3.55
2023-02-18T10:04:24.956Z,3.65
2023-02-18T10:07:38.759Z,3.15
2023-02-18T10:10:44.499Z,3.22
2023-02-18T10:13:46.459Z,1.90
2023-02-18T10:16:51.058Z,3.38
2023-02-18T10:19:56.082Z,2.45
2023-02-18T10:23:01.190Z,2.80
2023-02-18T10:26:07.704Z,4.28
2023-02-18T10:29:21.263Z,1.93
2023-02-18T10:32:27.678Z,2.42
2023-02-18T10:35:29.442Z,1.67
2023-02-18T10:38:41.839Z,3.53
2023-02-18T10:42:03.900Z,1.38
2023-02-18T10:45:30.187Z,2.97
2023-02-18T10:48:52.686Z,1.83
2023-02-18T10:51:57.925Z,1.25
2023-02-18T10:55:04.546Z,2.10
2023-02-18T10:58:30.496Z,3.38
2023-02-18T11:01:32.471Z,2.17
2023-02-18T11:04:42.885Z,2.67
2023-02-18T11:07:49.134Z,2.45
2023-02-18T11:10:52.518Z,11.48
2023-02-18T11:13:57.168Z,2.95
2023-02-18T11:17:09.802Z,1.10
2023-02-18T11:20:31.363Z,6.30
2023-02-18T11:23:46.603Z,1.63
2023-02-18T11:26:48.668Z,4.75
2023-02-18T11:29:55.121Z,6.13
2023-02-18T11:33:03.237Z,6.90
2023-02-18T11:36:22.198Z,4.53
2023-02-18T11:39:27.821Z,2.33
2023-02-18T11:42:30.012Z,4.05
2023-02-18T11:45:34.741Z,7.88
2023-02-18T11:48:36.852Z,3.03
2023-02-18T11:51:40.292Z,3.08
2023-02-18T11:54:42.236Z,4.05
2023-02-18T11:58:05.372Z,2.40
2023-02-18T12:01:15.599Z,1.23
2023-02-18T12:04:21.520Z,2.10
2023-02-18T12:07:34.819Z,1.48
2023-02-18T12:10:40.751Z,2.72
2023-02-18T12:13:52.420Z,2.20
2023-02-18T12:17:03.450Z,3.20
2023-02-18T12:20:42.779Z,4.47
2023-02-18T12:24:12.044Z,8.45
2023-02-18T12:27:25.097Z,1.80
2023-02-18T12:31:14.584Z,2.15
2023-02-18T12:34:36.691Z,1.00
2023-02-18T12:38:02.192Z,4.17
2023-02-18T12:41:22.574Z,1.85
2023-02-18T12:44:24.829Z,2.38
2023-02-18T12:47:54.778Z,1.80
2023-02-18T12:51:02.221Z,1.48
2023-02-18T12:54:27.015Z,6.93
2023-02-18T12:57:36.685Z,3.75
2023-02-18T13:00:53.410Z,1.45
2023-02-18T13:04:14.947Z,3.50
2023-02-18T13:07:26.386Z,4.22
2023-02-18T13:10:32.374Z,7.33
2023-02-18T13:13:41.115Z,9.10
2023-02-18T13:16:47.096Z,4.72
2023-02-18T13:20:21.722Z,9.07
2023-02-18T13:23:31.338Z,3.30
2023-02-18T13:26:34.938Z,3.67
2023-02-18T13:30:17.298Z,2.45
2023-02-18T13:33:41.381Z,1.80
2023-02-18T13:37:10.498Z,2.85
2023-02-18T13:40:25.274Z,2.08
2023-02-18T13:43:27.264Z,2.50
2023-02-18T13:46:29.371Z,1.70
2023-02-18T13:49:38.383Z,2.13
2023-02-18T13:52:40.840Z,2.75
2023-02-18T13:55:51.639Z,1.80
2023-02-18T13:59:20.075Z,2.83
2023-02-18T14:02:27.734Z,2.42
2023-02-18T14:05:41.573Z,2.75
2023-02-18T14:08:44.138Z,2.22
2023-02-18T14:11:53.642Z,3.10
2023-02-18T14:14:55.613Z,1.50
2023-02-18T14:18:12.724Z,1.30
2023-02-18T14:21:14.637Z,2.17
2023-02-18T14:24:59.572Z,2.70
2023-02-18T14:28:04.874Z,2.22
2023-02-18T14:31:34.247Z,1.90
2023-02-18T14:34:54.183Z,1.88
2023-02-18T14:38:14.454Z,2.88
2023-02-18T14:41:44.475Z,1.42
2023-02-18T14:44:57.707Z,3.45
2023-02-18T14:48:41.168Z,1.70
2023-02-18T14:51:48.146Z,2.30
2023-02-18T14:54:50.852Z,3.50
2023-02-18T14:57:59.914Z,2.92
2023-02-18T15:01:31.940Z,1.90
2023-02-18T15:04:33.936Z,5.13
2023-02-18T15:07:35.861Z,5.03
2023-02-18T15:11:04.138Z,2.97
2023-02-18T15:14:16.597Z,0.90
2023-02-18T15:17:22.574Z,0.93
2023-02-18T15:20:35.209Z,0.70
2023-02-18T15:23:39.863Z,1.48
2023-02-18T15:26:45.847Z,2.55
2023-02-18T15:30:30.967Z,0.80
2023-02-18T15:33:32.971Z,2.08
2023-02-18T15:36:34.850Z,1.43
2023-02-18T15:39:39.698Z,2.63
2023-02-18T15:42:42.210Z,2.40
2023-02-18T15:45:46.838Z,1.83
2023-02-18T15:48:51.403Z,2.08
2023-02-18T15:52:00.332Z,1.70
2023-02-18T15:55:15.224Z,7.75
2023-02-18T15:58:22.636Z,3.28
2023-02-18T16:01:29.690Z,7.00
2023-02-18T16:04:34.066Z,4.63
2023-02-18T16:08:19.027Z,8.27
2023-02-18T16:12:20.682Z,5.35
2023-02-18T16:15:45.606Z,2.80
2023-02-18T16:18:47.555Z,6.25
2023-02-18T16:21:49.418Z,5.80
2023-02-18T16:24:56.860Z,11.60
2023-02-18T16:27:58.964Z,10.25
2023-02-18T16:31:01.096Z,21.20
2023-02-18T16:34:03.611Z,13.90
2023-02-18T16:37:24.373Z,6.45
2023-02-18T16:40:33.138Z,4.40
2023-02-18T16:43:35.402Z,4.47
2023-02-18T16:46:37.290Z,10.70
2023-02-18T16:49:42.014Z,5.40
2023-02-18T16:52:44.016Z,4.95
2023-02-18T16:55:46.366Z,8.17
2023-02-18T16:58:52.197Z,8.20
2023-02-18T17:01:56.034Z,6.22
2023-02-18T17:04:59.250Z,9.68
2023-02-18T17:08:23.429Z,6.38
2023-02-18T17:11:29.915Z,7.17
2023-02-18T17:14:32.165Z,4.03
2023-02-18T17:17:34.099Z,3.90
2023-02-18T17:20:36.223Z,6.78
2023-02-18T17:23:38.152Z,4.03
2023-02-18T17:26:40.881Z,4.93
2023-02-18T17:29:43.086Z,3.50
2023-02-18T17:32:48.978Z,3.08
2023-02-18T17:35:51.257Z,4.00
2023-02-18T17:38:53.696Z,5.53
2023-02-18T17:41:55.802Z,6.47
2023-02-18T17:44:57.897Z,3.00
2023-02-18T17:48:01.855Z,2.60
2023-02-18T17:51:06.199Z,4.78
2023-02-18T17:54:18.525Z,3.58
2023-02-18T17:57:20.603Z,3.20
2023-02-18T18:01:02.799Z,3.45
2023-02-18T18:04:11.822Z,3.53
2023-02-18T18:07:14.025Z,4.65
2023-02-18T18:10:17.199Z,4.97
2023-02-18T18:13:22.866Z,4.90
2023-02-18T18:16:25.538Z,5.20
2023-02-18T18:19:27.768Z,3.08
2023-02-18T18:22:29.863Z,3.20
2023-02-18T18:25:39.101Z,2.75
2023-02-18T18:28:41.579Z,3.27
2023-02-18T18:31:43.692Z,3.13
2023-02-18T18:34:48.987Z,3.10
2023-02-18T18:37:51.703Z,5.25
2023-02-18T18:40:54.747Z,7.90
2023-02-18T18:43:56.578Z,12.93
2023-02-18T18:46:58.760Z,14.80
2023-02-18T18:50:00.811Z,18.13
2023-02-18T18:53:03.120Z,20.48
2023-02-18T18:56:07.079Z,16.20
2023-02-18T18:59:10.160Z,25.00
2023-02-18T19:02:16.399Z,23.27
2023-02-18T19:05:22.445Z,20.90
2023-02-18T19:08:25.479Z,18.17
2023-02-18T19:11:27.715Z,21.10
2023-02-18T19:14:29.754Z,59.37
2023-02-18T19:17:31.762Z,56.03
2023-02-18T19:20:36.080Z,35.30
2023-02-18T19:23:39.064Z,33.97
2023-02-18T19:26:41.710Z,32.60
2023-02-18T19:29:43.674Z,30.60
2023-02-18T19:32:46.382Z,45.83
2023-02-18T19:35:48.515Z,37.38
2023-02-18T19:38:51.560Z,34.63
2023-02-18T19:41:54.170Z,35.97
2023-02-18T19:44:56.308Z,33.87
2023-02-18T19:47:59.873Z,31.08
2023-02-18T19:51:03.409Z,40.58
2023-02-18T19:54:05.469Z,52.33
2023-02-18T19:57:07.603Z,53.92
2023-02-18T20:00:13.531Z,43.63
2023-02-18T20:03:15.951Z,51.25
2023-02-18T20:06:20.186Z,35.63
2023-02-18T20:09:22.877Z,57.47
2023-02-18T20:12:24.855Z,38.42
2023-02-18T20:15:26.980Z,30.70
2023-02-18T20:18:29.127Z,35.75
2023-02-18T20:21:31.307Z,33.22
2023-02-18T20:24:33.976Z,38.55
2023-02-18T20:27:38.431Z,33.72
2023-02-18T20:30:42.836Z,45.23
2023-02-18T20:33:45.336Z,42.45
2023-02-18T20:36:50.058Z,36.55
2023-02-18T20:39:52.734Z,49.03
2023-02-18T20:42:54.980Z,60.35
2023-02-18T20:46:12.200Z,40.07
2023-02-18T20:49:18.666Z,44.92
2023-02-18T20:52:22.087Z,34.33
2023-02-18T20:55:24.304Z,32.03
2023-02-18T20:58:27.044Z,46.00
2023-02-18T21:01:29.679Z,29.97
2023-02-18T21:04:32.315Z,11.68
2023-02-18T21:07:34.285Z,12.95
2023-02-18T21:10:40.088Z,2.50
2023-02-18T21:13:42.892Z,3.03
2023-02-18T21:16:45.279Z,1.23
2023-02-18T21:19:47.429Z,1.58
2023-02-18T21:22:50.024Z,1.90
2023-02-18T21:25:52.378Z,1.52
2023-02-18T21:28:58.504Z,1.48
2023-02-18T21:32:01.097Z,1.90
2023-02-18T21:35:04.212Z,4.88
2023-02-18T21:38:07.743Z,2.63
2023-02-18T21:41:12.583Z,2.47
2023-02-18T21:44:14.705Z,2.50
2023-02-18T21:47:16.585Z,1.90
2023-02-18T21:50:18.592Z,2.88
2023-02-18T21:53:20.644Z,2.25
2023-02-18T21:56:22.494Z,1.95
2023-02-18T21:59:26.952Z,2.00
2023-02-18T22:02:32.397Z,2.03
2023-02-18T22:05:34.359Z,2.17
2023-02-18T22:08:36.300Z,2.35
2023-02-18T22:11:41.578Z,1.27
2023-02-18T22:14:44.185Z,2.72
2023-02-18T22:17:45.991Z,2.87
2023-02-18T22:20:48.004Z,1.98
2023-02-18T22:23:49.884Z,3.60
2023-02-18T22:26:51.857Z,1.75
2023-02-18T22:29:54.343Z,1.52
2023-02-18T22:32:56.485Z,4.07
2023-02-18T22:36:05.030Z,3.05
2023-02-18T22:39:06.970Z,1.98
2023-02-18T22:42:09.064Z,2.72
2023-02-18T22:45:11.026Z,3.20
2023-02-18T22:48:12.953Z,1.50
2023-02-18T22:51:31.284Z,2.53
2023-02-18T22:54:33.319Z,2.80
2023-02-18T22:57:35.227Z,3.17
2023-02-18T23:00:37.213Z,4.82
2023-02-18T23:03:39.519Z,2.27
2023-02-18T23:06:44.302Z,2.10
2023-02-18T23:09:46.771Z,3.15
2023-02-18T23:12:48.736Z,8.77
2023-02-18T23:16:05.689Z,10.23
2023-02-18T23:19:07.553Z,6.73
2023-02-18T23:22:11.505Z,3.92
2023-02-18T23:25:14.329Z,3.67
2023-02-18T23:28:16.255Z,2.58
2023-02-18T23:31:24.214Z,4.95
2023-02-18T23:34:26.382Z,3.40
2023-02-18T23:37:46.913Z,3.20
2023-02-18T23:40:49.571Z,3.70
2023-02-18T23:43:51.909Z,3.03
2023-02-18T23:46:54.437Z,2.00
2023-02-18T23:49:56.386Z,1.80
2023-02-18T23:52:58.306Z,3.38
2023-02-18T23:56:19.440Z,2.70
2023-02-18T23:59:21.586Z,3.30
